Terminal Aerodrome Forecast
Issued by NWS

Current Version | Previous Version | Graphics & Text | Print | Product List | Glossary On
Versions: 1 2 3 4 5 6 7 8 9 10 11 12 13 14 15 16 17 18 19 20 21 22 23 24 25
000
FTUS41 KRLX 031739
TAFCKB
TAF
KCKB 031739Z 0318/0418 00000KT P6SM SCT035 SCT110
     FM031900 27004KT P6SM VCTS BKN045CB
     FM032300 31004KT P6SM BKN045
     FM040000 VRB03KT P6SM BKN080
     FM040800 00000KT 4SM BR FEW001
     FM040900 00000KT 1/4SM FG SCT001 BKN045
     FM041200 00000KT 1SM BR SCT001 BKN045
     FM041300 00000KT P6SM BKN045
     FM041600 00000KT P6SM VCTS BKN045CB=

USA.gov is the U.S. government's official web portal to all federal, state and local government web resources and services.